Time,TemperatureF,DewpointF,PressureIn,WindDirection,WindDirectionDegrees,WindSpeedMPH,WindSpeedGustMPH,Humidity,HourlyPrecipIn,Conditions,Clouds,dailyrainin,SolarRadiationWatts/m^2,SoftwareType,DateUTC
2013-11-10 00:00:00,36.5,29.3,30.23,NNE,16,2.0,10.0,75,0.00,,---,0.00,0.00,VWS V14.00,2013-11-10 06:00:00,
2013-11-10 00:03:00,36.5,29.3,30.23,WNW,283,2.0,7.0,75,0.00,,---,0.00,0.00,VWS V14.00,2013-11-10 06:03:00,
2013-11-10 00:09:00,36.5,29.3,30.23,NNW,331,0.0,7.0,75,0.00,,---,0.00,0.00,VWS V14.00,2013-11-10 06:09:00,
2013-11-10 00:14:00,36.5,29.3,30.23,NW,309,3.0,7.0,75,0.00,,---,0.00,0.00,VWS V14.00,2013-11-10 06:14:00,
2013-11-10 00:19:00,36.5,29.7,30.24,NW,309,3.0,13.0,76,0.00,,---,0.00,0.00,VWS V14.00,2013-11-10 06:19:00,
2013-11-10 00:24:00,36.5,29.3,30.24,NW,315,3.0,13.0,75,0.00,,---,0.00,0.00,VWS V14.00,2013-11-10 06:24:00,
2013-11-10 00:29:00,36.5,29.3,30.25,WNW,295,2.0,6.0,75,0.00,,---,0.00,0.00,VWS V14.00,2013-11-10 06:29:00,
2013-11-10 00:30:00,36.5,29.7,30.24,West,260,2.0,13.0,76,0.00,,---,0.00,0.00,VWS V14.00,2013-11-10 06:30:00,
2013-11-10 00:34:00,36.5,29.3,30.25,WSW,257,1.0,6.0,75,0.00,,---,0.00,0.00,VWS V14.00,2013-11-10 06:34:00,
2013-11-10 00:39:00,36.5,29.3,30.25,NW,313,0.0,6.0,75,0.00,,---,0.00,0.00,VWS V14.00,2013-11-10 06:39:00,
2013-11-10 00:44:00,36.5,29.7,30.25,WNW,284,0.0,6.0,76,0.00,,---,0.00,0.00,VWS V14.00,2013-11-10 06:44:00,
2013-11-10 00:49:00,36.4,29.6,30.25,NW,309,0.0,6.0,76,0.00,,---,0.00,0.00,VWS V14.00,2013-11-10 06:49:00,
2013-11-10 00:54:00,36.4,29.6,30.25,NNW,344,1.0,8.0,76,0.00,,---,0.00,0.00,VWS V14.00,2013-11-10 06:54:00,
2013-11-10 00:59:00,36.4,29.6,30.25,NW,315,3.0,6.0,76,0.00,,---,0.00,0.00,VWS V14.00,2013-11-10 06:59:00,
2013-11-10 01:00:00,36.4,29.6,30.25,NW,314,2.0,8.0,76,0.00,,---,0.00,0.00,VWS V14.00,2013-11-10 07:00:00,
2013-11-10 01:04:00,36.4,29.2,30.25,NNW,342,0.0,7.0,75,0.00,,---,0.00,0.00,VWS V14.00,2013-11-10 07:04:00,
2013-11-10 01:09:00,36.4,29.6,30.25,WNW,288,2.0,7.0,76,0.00,,---,0.00,0.00,VWS V14.00,2013-11-10 07:09:00,
2013-11-10 01:14:00,36.4,29.6,30.26,NW,319,2.0,9.0,76,0.00,,---,0.00,0.00,VWS V14.00,2013-11-10 07:14:00,
2013-11-10 01:20:00,36.4,29.6,30.26,NW,309,2.0,9.0,76,0.00,,---,0.00,0.00,VWS V14.00,2013-11-10 07:20:00,
2013-11-10 01:25:00,36.5,29.7,30.25,North,360,6.0,10.0,76,0.00,,---,0.00,0.00,VWS V14.00,2013-11-10 07:25:00,
2013-11-10 01:30:00,36.5,29.7,30.26,NW,317,7.0,11.0,76,0.00,,---,0.00,0.00,VWS V14.00,2013-11-10 07:30:00,
2013-11-10 01:35:00,36.6,29.8,30.26,NW,317,5.0,11.0,76,0.00,,---,0.00,0.00,VWS V14.00,2013-11-10 07:35:00,
2013-11-10 01:40:00,36.5,29.7,30.27,SW,233,0.0,11.0,76,0.00,,---,0.00,0.00,VWS V14.00,2013-11-10 07:40:00,
2013-11-10 01:45:00,36.5,29.7,30.27,NW,309,2.0,11.0,76,0.00,,---,0.00,0.00,VWS V14.00,2013-11-10 07:45:00,
2013-11-10 01:50:00,36.5,29.7,30.26,WNW,294,2.0,11.0,76,0.00,,---,0.00,0.00,VWS V14.00,2013-11-10 07:50:00,
2013-11-10 01:55:00,36.5,29.7,30.27,WNW,298,2.0,11.0,76,0.00,,---,0.00,0.00,VWS V14.00,2013-11-10 07:55:00,
2013-11-10 02:00:00,36.5,29.7,30.27,NNW,327,12.0,12.0,76,0.00,,---,0.00,0.00,VWS V14.00,2013-11-10 08:00:00,
2013-11-10 02:05:00,36.4,29.6,30.27,NW,314,4.0,12.0,76,0.00,,---,0.00,0.00,VWS V14.00,2013-11-10 08:05:00,
2013-11-10 02:10:00,36.4,29.6,30.27,NW,321,6.0,12.0,76,0.00,,---,0.00,0.00,VWS V14.00,2013-11-10 08:10:00,
2013-11-10 02:15:00,36.4,29.6,30.28,NNW,346,3.0,12.0,76,0.00,,---,0.00,0.00,VWS V14.00,2013-11-10 08:15:00,
2013-11-10 02:20:00,36.4,29.6,30.28,WNW,300,4.0,12.0,76,0.00,,---,0.00,0.00,VWS V14.00,2013-11-10 08:20:00,
2013-11-10 02:26:00,36.4,29.6,30.28,NW,319,5.0,12.0,76,0.00,,---,0.00,0.00,VWS V14.00,2013-11-10 08:26:00,
2013-11-10 02:30:00,36.4,29.6,30.28,NW,310,3.0,12.0,76,0.00,,---,0.00,0.00,VWS V14.00,2013-11-10 08:30:00,
2013-11-10 02:31:00,36.4,29.6,30.27,NW,306,6.0,6.0,76,0.00,,---,0.00,0.00,VWS V14.00,2013-11-10 08:31:00,
2013-11-10 02:36:00,36.4,29.6,30.28,NW,309,8.0,10.0,76,0.00,,---,0.00,0.00,VWS V14.00,2013-11-10 08:36:00,
2013-11-10 02:41:00,36.5,29.3,30.28,NNW,332,10.0,10.0,75,0.00,,---,0.00,0.00,VWS V14.00,2013-11-10 08:41:00,
2013-11-10 02:46:00,36.5,29.3,30.28,NW,307,4.0,11.0,75,0.00,,---,0.00,0.00,VWS V14.00,2013-11-10 08:46:00,
2013-11-10 02:51:00,36.5,29.0,30.28,NNW,346,3.0,11.0,74,0.00,,---,0.00,0.00,VWS V14.00,2013-11-10 08:51:00,
2013-11-10 02:56:00,36.6,28.8,30.28,NW,304,5.0,15.0,73,0.00,,---,0.00,0.00,VWS V14.00,2013-11-10 08:56:00,
2013-11-10 03:00:00,36.6,28.8,30.28,NW,316,3.0,15.0,73,0.00,,---,0.00,0.00,VWS V14.00,2013-11-10 09:00:00,
2013-11-10 03:01:00,36.6,28.8,30.28,WNW,300,6.0,12.0,73,0.00,,---,0.00,0.00,VWS V14.00,2013-11-10 09:01:00,
2013-11-10 03:06:00,36.6,28.8,30.28,NW,315,5.0,12.0,73,0.00,,---,0.00,0.00,VWS V14.00,2013-11-10 09:06:00,
2013-11-10 03:11:00,36.5,28.7,30.28,WNW,295,3.0,12.0,73,0.00,,---,0.00,0.00,VWS V14.00,2013-11-10 09:11:00,
2013-11-10 03:16:00,36.5,28.7,30.28,WNW,298,5.0,12.0,73,0.00,,---,0.00,0.00,VWS V14.00,2013-11-10 09:16:00,
2013-11-10 03:21:00,36.4,28.9,30.29,NNE,30,7.0,12.0,74,0.00,,---,0.00,0.00,VWS V14.00,2013-11-10 09:21:00,
2013-11-10 03:26:00,36.3,28.5,30.29,NW,319,4.0,12.0,73,0.00,,---,0.00,0.00,VWS V14.00,2013-11-10 09:26:00,
2013-11-10 03:30:00,34.1,28.0,30.31,NW,313,0.0,5.0,78,0.00,,---,0.00,0.00,VWS V14.00,2013-11-10 09:30:00,
2013-11-10 03:31:00,36.1,28.6,30.29,WNW,302,1.0,6.0,74,0.00,,---,0.00,0.00,VWS V14.00,2013-11-10 09:31:00,
2013-11-10 03:36:00,35.9,28.4,30.30,NW,304,2.0,6.0,74,0.00,,---,0.00,0.00,VWS V14.00,2013-11-10 09:36:00,
2013-11-10 03:42:00,35.7,28.6,30.29,NW,304,0.0,6.0,75,0.00,,---,0.00,0.00,VWS V14.00,2013-11-10 09:42:00,
2013-11-10 03:47:00,35.5,28.7,30.29,NW,318,2.0,6.0,76,0.00,,---,0.00,0.00,VWS V14.00,2013-11-10 09:47:00,
2013-11-10 03:52:00,35.3,28.5,30.29,NW,305,1.0,6.0,76,0.00,,---,0.00,0.00,VWS V14.00,2013-11-10 09:52:00,
2013-11-10 03:57:00,35.1,28.6,30.29,NW,311,3.0,6.0,77,0.00,,---,0.00,0.00,VWS V14.00,2013-11-10 09:57:00,
2013-11-10 04:00:00,35.1,28.6,30.29,NW,311,3.0,6.0,77,0.00,,---,0.00,0.00,VWS V14.00,2013-11-10 10:00:00,
2013-11-10 04:02:00,35.0,28.5,30.30,NW,315,1.0,4.0,77,0.00,,---,0.00,0.00,VWS V14.00,2013-11-10 10:02:00,
2013-11-10 04:07:00,34.8,28.3,30.30,NW,317,0.0,4.0,77,0.00,,---,0.00,0.00,VWS V14.00,2013-11-10 10:07:00,
2013-11-10 04:12:00,34.7,28.2,30.30,NW,318,0.0,4.0,77,0.00,,---,0.00,0.00,VWS V14.00,2013-11-10 10:12:00,
2013-11-10 04:17:00,34.4,28.3,30.30,NW,313,1.0,5.0,78,0.00,,---,0.00,0.00,VWS V14.00,2013-11-10 10:17:00,
2013-11-10 04:22:00,34.4,28.3,30.30,NW,313,0.0,5.0,78,0.00,,---,0.00,0.00,VWS V14.00,2013-11-10 10:22:00,
2013-11-10 04:27:00,34.2,28.1,30.31,NW,313,0.0,1.0,78,0.00,,---,0.00,0.00,VWS V14.00,2013-11-10 10:27:00,
2013-11-10 04:30:00,34.1,28.0,30.31,NW,313,0.0,5.0,78,0.00,,---,0.00,0.00,VWS V14.00,2013-11-10 10:30:00,
2013-11-10 04:32:00,33.9,27.8,30.30,NW,313,0.0,1.0,78,0.00,,---,0.00,0.00,VWS V14.00,2013-11-10 10:32:00,
2013-11-10 04:37:00,33.7,27.6,30.31,West,271,1.0,2.0,78,0.00,,---,0.00,0.00,VWS V14.00,2013-11-10 10:37:00,
2013-11-10 04:42:00,33.5,27.7,30.31,West,271,0.0,2.0,79,0.00,,---,0.00,0.00,VWS V14.00,2013-11-10 10:42:00,
2013-11-10 04:47:00,33.3,27.5,30.32,NW,319,3.0,4.0,79,0.00,,---,0.00,0.00,VWS V14.00,2013-11-10 10:47:00,
2013-11-10 04:52:00,33.2,27.4,30.32,NNW,348,2.0,4.0,79,0.00,,---,0.00,0.00,VWS V14.00,2013-11-10 10:52:00,
2013-11-10 04:57:00,33.2,27.4,30.33,NW,320,1.0,1.0,79,0.00,,---,0.00,0.00,VWS V14.00,2013-11-10 10:57:00,
2013-11-10 05:00:00,33.2,27.4,30.32,NW,320,0.0,4.0,79,0.00,,---,0.00,0.00,VWS V14.00,2013-11-10 11:00:00,
2013-11-10 05:02:00,33.2,27.4,30.32,NW,319,0.0,2.0,79,0.00,,---,0.00,0.00,VWS V14.00,2013-11-10 11:02:00,
2013-11-10 05:07:00,33.1,27.0,30.32,NNW,329,0.0,4.0,78,0.00,,---,0.00,0.00,VWS V14.00,2013-11-10 11:07:00,
2013-11-10 05:12:00,33.0,26.9,30.33,NW,318,0.0,4.0,78,0.00,,---,0.00,0.00,VWS V14.00,2013-11-10 11:12:00,
2013-11-10 05:17:00,32.9,26.8,30.33,NW,317,0.0,4.0,78,0.00,,---,0.00,0.00,VWS V14.00,2013-11-10 11:17:00,
2013-11-10 05:22:00,32.9,27.1,30.33,NW,306,0.0,7.0,79,0.00,,---,0.00,0.00,VWS V14.00,2013-11-10 11:22:00,
2013-11-10 05:27:00,33.0,27.2,30.33,NW,307,0.0,0.0,79,0.00,,---,0.00,0.00,VWS V14.00,2013-11-10 11:27:00,
2013-11-10 05:30:00,33.0,27.2,30.33,NW,307,0.0,7.0,79,0.00,,---,0.00,0.00,VWS V14.00,2013-11-10 11:30:00,
2013-11-10 05:32:00,33.0,27.2,30.33,NW,307,0.0,0.0,79,0.00,,---,0.00,0.00,VWS V14.00,2013-11-10 11:32:00,
2013-11-10 05:38:00,33.0,27.2,30.33,NW,307,0.0,0.0,79,0.00,,---,0.00,0.00,VWS V14.00,2013-11-10 11:38:00,
2013-11-10 05:43:00,33.1,27.3,30.33,NW,307,0.0,0.0,79,0.00,,---,0.00,0.00,VWS V14.00,2013-11-10 11:43:00,
2013-11-10 05:48:00,33.2,27.4,30.32,NW,307,0.0,0.0,79,0.00,,---,0.00,0.00,VWS V14.00,2013-11-10 11:48:00,
2013-11-10 05:53:00,33.1,27.3,30.33,NW,307,0.0,0.0,79,0.00,,---,0.00,0.00,VWS V14.00,2013-11-10 11:53:00,
2013-11-10 05:58:00,33.0,27.5,30.33,NW,307,0.0,0.0,80,0.00,,---,0.00,0.00,VWS V14.00,2013-11-10 11:58:00,
2013-11-10 06:00:00,33.1,27.6,30.33,NW,307,0.0,0.0,80,0.00,,---,0.00,0.00,VWS V14.00,2013-11-10 12:00:00,
2013-11-10 06:03:00,32.9,27.7,30.33,NW,307,0.0,0.0,81,0.00,,---,0.00,0.00,VWS V14.00,2013-11-10 12:03:00,
2013-11-10 06:08:00,32.8,27.6,30.33,NW,307,0.0,0.0,81,0.00,,---,0.00,0.00,VWS V14.00,2013-11-10 12:08:00,
2013-11-10 06:13:00,32.7,27.8,30.33,NW,307,0.0,0.0,82,0.00,,---,0.00,0.00,VWS V14.00,2013-11-10 12:13:00,
2013-11-10 06:18:00,32.6,27.7,30.33,NW,307,0.0,0.0,82,0.00,,---,0.00,0.00,VWS V14.00,2013-11-10 12:18:00,
2013-11-10 06:23:00,32.6,27.7,30.33,NW,307,0.0,0.0,82,0.00,,---,0.00,0.00,VWS V14.00,2013-11-10 12:23:00,
2013-11-10 06:28:00,32.5,27.6,30.33,NW,307,0.0,0.0,82,0.00,,---,0.00,0.00,VWS V14.00,2013-11-10 12:28:00,
2013-11-10 06:30:00,32.6,27.7,30.33,NW,307,0.0,0.0,82,0.00,,---,0.00,0.00,VWS V14.00,2013-11-10 12:30:00,
2013-11-10 06:33:00,32.5,27.6,30.33,NW,307,0.0,0.0,82,0.00,,---,0.00,0.00,VWS V14.00,2013-11-10 12:33:00,
2013-11-10 06:38:00,32.5,27.6,30.34,NW,307,0.0,0.0,82,0.00,,---,0.00,0.00,VWS V14.00,2013-11-10 12:38:00,
2013-11-10 06:43:00,32.4,27.5,30.35,NW,307,0.0,1.0,82,0.00,,---,0.00,0.00,VWS V14.00,2013-11-10 12:43:00,
2013-11-10 06:48:00,32.4,27.5,30.35,NW,307,0.0,1.0,82,0.00,,---,0.00,0.00,VWS V14.00,2013-11-10 12:48:00,
2013-11-10 06:53:00,32.4,27.5,30.35,NW,307,0.0,1.0,82,0.00,,---,0.00,0.00,VWS V14.00,2013-11-10 12:53:00,
2013-11-10 06:58:00,32.3,27.4,30.35,NW,307,0.0,0.0,82,0.00,,---,0.00,5.00,VWS V14.00,2013-11-10 12:58:00,
2013-11-10 07:00:00,31.7,27.4,30.34,NW,307,0.0,0.0,84,0.00,,---,0.00,51.00,VWS V14.00,2013-11-10 13:00:00,
2013-11-10 07:03:00,32.3,27.4,30.35,NW,307,0.0,0.0,82,0.00,,---,0.00,5.00,VWS V14.00,2013-11-10 13:03:00,
2013-11-10 07:08:00,32.1,27.2,30.35,NW,307,0.0,0.0,82,0.00,,---,0.00,9.00,VWS V14.00,2013-11-10 13:08:00,
2013-11-10 07:13:00,32.0,27.1,30.34,NW,307,0.0,0.0,82,0.00,,---,0.00,12.00,VWS V14.00,2013-11-10 13:13:00,
2013-11-10 07:19:00,31.9,27.0,30.34,NW,307,0.0,0.0,82,0.00,,---,0.00,18.00,VWS V14.00,2013-11-10 13:19:00,
2013-11-10 07:24:00,31.7,27.1,30.34,NW,307,0.0,0.0,83,0.00,,---,0.00,25.00,VWS V14.00,2013-11-10 13:24:00,
2013-11-10 07:29:00,31.6,27.0,30.34,NW,307,0.0,0.0,83,0.00,,---,0.00,25.00,VWS V14.00,2013-11-10 13:29:00,
2013-11-10 07:30:00,31.7,27.1,30.34,NW,307,0.0,0.0,83,0.00,,---,0.00,25.00,VWS V14.00,2013-11-10 13:30:00,
2013-11-10 07:34:00,31.6,27.3,30.34,NW,307,0.0,0.0,84,0.00,,---,0.00,30.00,VWS V14.00,2013-11-10 13:34:00,
2013-11-10 07:39:00,31.6,27.3,30.34,NW,307,0.0,0.0,84,0.00,,---,0.00,33.00,VWS V14.00,2013-11-10 13:39:00,
2013-11-10 07:44:00,31.5,27.2,30.34,NW,307,0.0,0.0,84,0.00,,---,0.00,39.00,VWS V14.00,2013-11-10 13:44:00,
2013-11-10 07:49:00,31.6,27.3,30.34,NW,307,0.0,0.0,84,0.00,,---,0.00,44.00,VWS V14.00,2013-11-10 13:49:00,
2013-11-10 07:54:00,31.6,27.3,30.34,NW,307,0.0,0.0,84,0.00,,---,0.00,49.00,VWS V14.00,2013-11-10 13:54:00,
2013-11-10 07:59:00,31.7,27.4,30.34,NW,307,0.0,0.0,84,0.00,,---,0.00,53.00,VWS V14.00,2013-11-10 13:59:00,
2013-11-10 08:00:00,31.7,27.4,30.34,NW,307,0.0,0.0,84,0.00,,---,0.00,51.00,VWS V14.00,2013-11-10 14:00:00,
2013-11-10 08:04:00,31.9,27.6,30.34,NW,307,0.0,2.0,84,0.00,,---,0.00,54.00,VWS V14.00,2013-11-10 14:04:00,
2013-11-10 08:09:00,32.2,27.9,30.35,NW,307,0.0,2.0,84,0.00,,---,0.00,58.00,VWS V14.00,2013-11-10 14:09:00,
2013-11-10 08:14:00,32.4,28.1,30.35,NW,307,0.0,2.0,84,0.00,,---,0.00,67.00,VWS V14.00,2013-11-10 14:14:00,
2013-11-10 08:19:00,32.7,28.1,30.34,NW,307,0.0,2.0,83,0.00,,---,0.00,70.00,VWS V14.00,2013-11-10 14:19:00,
2013-11-10 08:24:00,32.9,28.0,30.34,NW,307,0.0,2.0,82,0.00,,---,0.00,76.00,VWS V14.00,2013-11-10 14:24:00,
2013-11-10 08:29:00,33.2,28.3,30.34,NW,307,0.0,1.0,82,0.00,,---,0.00,86.00,VWS V14.00,2013-11-10 14:29:00,
2013-11-10 08:30:00,33.1,28.2,30.34,NW,307,1.0,2.0,82,0.00,,---,0.00,81.00,VWS V14.00,2013-11-10 14:30:00,
2013-11-10 08:34:00,33.5,28.3,30.35,NW,307,0.0,1.0,81,0.00,,---,0.00,93.00,VWS V14.00,2013-11-10 14:34:00,
2013-11-10 08:39:00,33.8,28.6,30.35,NW,307,0.0,2.0,81,0.00,,---,0.00,98.00,VWS V14.00,2013-11-10 14:39:00,
2013-11-10 08:44:00,34.2,28.4,30.35,WSW,238,0.0,2.0,79,0.00,,---,0.00,105.00,VWS V14.00,2013-11-10 14:44:00,
2013-11-10 08:49:00,34.4,28.6,30.35,WSW,238,0.0,2.0,79,0.00,,---,0.00,111.00,VWS V14.00,2013-11-10 14:49:00,
2013-11-10 08:54:00,34.7,28.2,30.35,SSW,201,0.0,3.0,77,0.00,,---,0.00,116.00,VWS V14.00,2013-11-10 14:54:00,
2013-11-10 08:59:00,34.9,28.4,30.34,SSW,201,0.0,2.0,77,0.00,,---,0.00,125.00,VWS V14.00,2013-11-10 14:59:00,
2013-11-10 09:00:00,34.8,28.3,30.35,SSW,201,0.0,3.0,77,0.00,,---,0.00,118.00,VWS V14.00,2013-11-10 15:00:00,
2013-11-10 09:05:00,35.1,28.3,30.34,South,173,0.0,2.0,76,0.00,,---,0.00,130.00,VWS V14.00,2013-11-10 15:05:00,
2013-11-10 09:10:00,35.2,28.4,30.34,South,173,0.0,2.0,76,0.00,,---,0.00,128.00,VWS V14.00,2013-11-10 15:10:00,
2013-11-10 09:15:00,35.3,28.5,30.34,South,174,0.0,2.0,76,0.00,,---,0.00,142.00,VWS V14.00,2013-11-10 15:15:00,
2013-11-10 09:20:00,35.5,28.7,30.34,South,175,2.0,2.0,76,0.00,,---,0.00,142.00,VWS V14.00,2013-11-10 15:20:00,
2013-11-10 09:25:00,35.7,28.9,30.34,South,175,0.0,2.0,76,0.00,,---,0.00,146.00,VWS V14.00,2013-11-10 15:25:00,
2013-11-10 09:30:00,35.9,28.8,30.34,West,271,0.0,2.0,75,0.00,,---,0.00,167.00,VWS V14.00,2013-11-10 15:30:00,
2013-11-10 09:35:00,36.1,29.0,30.34,West,268,0.0,2.0,75,0.00,,---,0.00,153.00,VWS V14.00,2013-11-10 15:35:00,
2013-11-10 09:40:00,36.2,29.0,30.33,West,270,0.0,2.0,75,0.00,,---,0.00,148.00,VWS V14.00,2013-11-10 15:40:00,
2013-11-10 09:45:00,36.4,28.9,30.33,SSW,192,0.0,2.0,74,0.00,,---,0.00,146.00,VWS V14.00,2013-11-10 15:45:00,
2013-11-10 09:50:00,36.5,28.7,30.34,SSE,159,0.0,3.0,73,0.00,,---,0.00,137.00,VWS V14.00,2013-11-10 15:50:00,
2013-11-10 09:55:00,36.6,28.8,30.34,West,265,0.0,3.0,73,0.00,,---,0.00,139.00,VWS V14.00,2013-11-10 15:55:00,
2013-11-10 10:00:00,36.7,28.9,30.34,NNE,22,0.0,2.0,73,0.00,,---,0.00,135.00,VWS V14.00,2013-11-10 16:00:00,
2013-11-10 10:05:00,36.8,29.0,30.35,SSE,165,0.0,3.0,73,0.00,,---,0.00,127.00,VWS V14.00,2013-11-10 16:05:00,
2013-11-10 10:10:00,36.9,28.7,30.35,WNW,297,0.0,5.0,72,0.00,,---,0.00,125.00,VWS V14.00,2013-11-10 16:10:00,
2013-11-10 10:15:00,37.1,29.3,30.34,West,271,0.0,5.0,73,0.00,,---,0.00,123.00,VWS V14.00,2013-11-10 16:15:00,
2013-11-10 10:20:00,37.3,29.1,30.34,South,179,0.0,5.0,72,0.00,,---,0.00,97.00,VWS V14.00,2013-11-10 16:20:00,
2013-11-10 10:25:00,37.4,29.2,30.34,SSW,201,0.0,5.0,72,0.00,,---,0.00,185.00,VWS V14.00,2013-11-10 16:25:00,
2013-11-10 10:30:00,37.5,29.3,30.34,SSW,196,1.0,2.0,72,0.00,,---,0.00,84.00,VWS V14.00,2013-11-10 16:30:00,
2013-11-10 10:35:00,37.5,29.0,30.34,NNW,347,0.0,3.0,71,0.00,,---,0.00,102.00,VWS V14.00,2013-11-10 16:35:00,
2013-11-10 10:40:00,37.4,28.9,30.34,South,181,0.0,4.0,71,0.00,,---,0.00,130.00,VWS V14.00,2013-11-10 16:40:00,
2013-11-10 10:46:00,37.4,29.2,30.34,WNW,288,0.0,4.0,72,0.00,,---,0.00,128.00,VWS V14.00,2013-11-10 16:46:00,
2013-11-10 10:51:00,37.4,29.2,30.34,South,169,0.0,4.0,72,0.00,,---,0.00,188.00,VWS V14.00,2013-11-10 16:51:00,
2013-11-10 10:56:00,37.6,29.1,30.34,SE,145,0.0,4.0,71,0.00,,---,0.00,253.00,VWS V14.00,2013-11-10 16:56:00,
2013-11-10 11:00:00,37.6,29.1,30.34,SSE,155,2.0,4.0,71,0.00,,---,0.00,221.00,VWS V14.00,2013-11-10 17:00:00,
2013-11-10 11:01:00,37.9,30.0,30.33,SSE,155,0.0,1.0,73,0.00,,---,0.00,209.00,VWS V14.00,2013-11-10 17:01:00,
2013-11-10 11:06:00,38.2,29.6,30.33,WSW,249,1.0,3.0,71,0.00,,---,0.00,374.00,VWS V14.00,2013-11-10 17:06:00,
2013-11-10 11:11:00,38.6,30.0,30.33,NW,314,2.0,3.0,71,0.00,,---,0.00,316.00,VWS V14.00,2013-11-10 17:11:00,
2013-11-10 11:16:00,39.1,29.8,30.33,SSE,168,0.0,4.0,69,0.00,,---,0.00,276.00,VWS V14.00,2013-11-10 17:16:00,
2013-11-10 11:21:00,39.4,30.1,30.33,South,178,1.0,4.0,69,0.00,,---,0.00,429.00,VWS V14.00,2013-11-10 17:21:00,
2013-11-10 11:26:00,39.6,30.3,30.33,SW,215,0.0,4.0,69,0.00,,---,0.00,332.00,VWS V14.00,2013-11-10 17:26:00,
2013-11-10 11:30:00,39.6,30.3,30.33,SW,215,0.0,4.0,69,0.00,,---,0.00,332.00,VWS V14.00,2013-11-10 17:30:00,
2013-11-10 11:31:00,39.7,30.4,30.32,East,98,0.0,2.0,69,0.00,,---,0.00,292.00,VWS V14.00,2013-11-10 17:31:00,
2013-11-10 11:36:00,39.9,30.9,30.32,West,267,0.0,4.0,70,0.00,,---,0.00,281.00,VWS V14.00,2013-11-10 17:36:00,
2013-11-10 11:41:00,39.9,29.9,30.32,SSE,167,0.0,6.0,67,0.00,,---,0.00,396.00,VWS V14.00,2013-11-10 17:41:00,
2013-11-10 11:46:00,40.0,30.3,30.31,SSE,147,0.0,6.0,68,0.00,,---,0.00,533.00,VWS V14.00,2013-11-10 17:46:00,
2013-11-10 11:51:00,40.2,30.5,30.31,SSE,151,2.0,6.0,68,0.00,,---,0.00,541.00,VWS V14.00,2013-11-10 17:51:00,
2013-11-10 11:57:00,40.5,30.4,30.31,East,91,0.0,6.0,67,0.00,,---,0.00,538.00,VWS V14.00,2013-11-10 17:57:00,
2013-11-10 12:00:00,40.5,30.4,30.31,East,91,1.0,6.0,67,0.00,,---,0.00,538.00,VWS V14.00,2013-11-10 18:00:00,
2013-11-10 12:02:00,40.7,30.6,30.31,WNW,303,0.0,4.0,67,0.00,,---,0.00,534.00,VWS V14.00,2013-11-10 18:02:00,
2013-11-10 12:07:00,41.0,30.5,30.31,SSW,192,2.0,4.0,66,0.00,,---,0.00,531.00,VWS V14.00,2013-11-10 18:07:00,
2013-11-10 12:12:00,41.1,30.2,30.31,SSE,148,0.0,5.0,65,0.00,,---,0.00,557.00,VWS V14.00,2013-11-10 18:12:00,
2013-11-10 12:17:00,41.3,30.4,30.30,SSE,160,2.0,5.0,65,0.00,,---,0.00,471.00,VWS V14.00,2013-11-10 18:17:00,
2013-11-10 12:22:00,41.3,30.4,30.30,SSE,164,0.0,9.0,65,0.00,,---,0.00,531.00,VWS V14.00,2013-11-10 18:22:00,
2013-11-10 12:27:00,41.1,30.6,30.30,SSE,164,0.0,0.0,66,0.00,,---,0.00,185.00,VWS V14.00,2013-11-10 18:27:00,
2013-11-10 12:30:00,41.2,30.7,30.30,SSE,164,0.0,9.0,66,0.00,,---,0.00,185.00,VWS V14.00,2013-11-10 18:30:00,
2013-11-10 12:32:00,41.1,31.0,30.30,SW,216,0.0,2.0,67,0.00,,---,0.00,223.00,VWS V14.00,2013-11-10 18:32:00,
2013-11-10 12:37:00,40.9,31.2,30.29,WSW,238,0.0,3.0,68,0.00,,---,0.00,246.00,VWS V14.00,2013-11-10 18:37:00,
2013-11-10 12:42:00,41.0,31.3,30.30,SSE,167,0.0,4.0,68,0.00,,---,0.00,142.00,VWS V14.00,2013-11-10 18:42:00,
2013-11-10 12:47:00,40.8,31.1,30.30,SSE,167,0.0,4.0,68,0.00,,---,0.00,120.00,VWS V14.00,2013-11-10 18:47:00,
2013-11-10 12:52:00,40.6,30.9,30.30,South,170,0.0,4.0,68,0.00,,---,0.00,114.00,VWS V14.00,2013-11-10 18:52:00,
2013-11-10 12:57:00,40.3,30.6,30.30,South,189,0.0,1.0,68,0.00,,---,0.00,98.00,VWS V14.00,2013-11-10 18:57:00,
2013-11-10 13:00:00,40.4,30.7,30.30,South,189,1.0,4.0,68,0.00,,---,0.00,100.00,VWS V14.00,2013-11-10 19:00:00,
2013-11-10 13:02:00,40.1,30.8,30.30,SW,231,0.0,2.0,69,0.00,,---,0.00,84.00,VWS V14.00,2013-11-10 19:02:00,
2013-11-10 13:08:00,39.9,30.6,30.29,South,173,0.0,3.0,69,0.00,,---,0.00,76.00,VWS V14.00,2013-11-10 19:08:00,
2013-11-10 13:13:00,39.6,29.9,30.28,SSE,155,0.0,3.0,68,0.00,,---,0.00,90.00,VWS V14.00,2013-11-10 19:13:00,
2013-11-10 13:18:00,39.4,30.4,30.28,SSE,155,0.0,3.0,70,0.00,,---,0.00,83.00,VWS V14.00,2013-11-10 19:18:00,
2013-11-10 13:23:00,39.3,30.7,30.28,SW,220,0.0,3.0,71,0.00,,---,0.00,83.00,VWS V14.00,2013-11-10 19:23:00,
2013-11-10 13:28:00,39.2,30.2,30.28,SW,219,0.0,1.0,70,0.00,,---,0.00,84.00,VWS V14.00,2013-11-10 19:28:00,
2013-11-10 13:30:00,39.2,30.6,30.28,SW,220,0.0,3.0,71,0.00,,---,0.00,88.00,VWS V14.00,2013-11-10 19:30:00,
2013-11-10 13:33:00,39.1,30.2,30.27,NNW,336,0.0,2.0,70,0.00,,---,0.00,88.00,VWS V14.00,2013-11-10 19:33:00,
2013-11-10 13:38:00,39.1,30.9,30.27,NNE,32,0.0,2.0,72,0.00,,---,0.00,93.00,VWS V14.00,2013-11-10 19:38:00,
2013-11-10 13:43:00,39.1,30.9,30.27,South,182,0.0,2.0,72,0.00,,---,0.00,86.00,VWS V14.00,2013-11-10 19:43:00,
2013-11-10 13:48:00,39.0,30.8,30.27,SSE,160,2.0,4.0,72,0.00,,---,0.00,90.00,VWS V14.00,2013-11-10 19:48:00,
2013-11-10 13:53:00,38.9,30.7,30.26,SSE,159,0.0,4.0,72,0.00,,---,0.00,70.00,VWS V14.00,2013-11-10 19:53:00,
2013-11-10 13:58:00,38.8,30.2,30.26,SSE,158,0.0,1.0,71,0.00,,---,0.00,58.00,VWS V14.00,2013-11-10 19:58:00,
2013-11-10 14:00:00,38.8,30.2,30.26,SSE,156,1.0,4.0,71,0.00,,---,0.00,62.00,VWS V14.00,2013-11-10 20:00:00,
2013-11-10 14:03:00,38.7,30.1,30.26,SSE,156,0.0,2.0,71,0.00,,---,0.00,58.00,VWS V14.00,2013-11-10 20:03:00,
2013-11-10 14:08:00,38.6,30.0,30.26,South,186,0.0,2.0,71,0.00,,---,0.00,54.00,VWS V14.00,2013-11-10 20:08:00,
2013-11-10 14:14:00,38.4,29.8,30.26,South,186,0.0,2.0,71,0.00,,---,0.00,58.00,VWS V14.00,2013-11-10 20:14:00,
2013-11-10 14:19:00,38.4,30.2,30.26,ESE,113,0.0,2.0,72,0.00,,---,0.00,65.00,VWS V14.00,2013-11-10 20:19:00,
2013-11-10 14:24:00,38.4,30.2,30.26,ESE,113,0.0,2.0,72,0.00,,---,0.00,72.00,VWS V14.00,2013-11-10 20:24:00,
2013-11-10 14:29:00,38.4,30.2,30.26,ESE,115,1.0,2.0,72,0.00,,---,0.00,51.00,VWS V14.00,2013-11-10 20:29:00,
2013-11-10 14:30:00,38.4,30.2,30.26,ESE,114,1.0,2.0,72,0.00,,---,0.00,53.00,VWS V14.00,2013-11-10 20:30:00,
2013-11-10 14:34:00,38.4,30.5,30.26,South,169,0.0,3.0,73,0.00,,---,0.00,46.00,VWS V14.00,2013-11-10 20:34:00,
2013-11-10 14:39:00,38.3,30.4,30.26,SSE,166,0.0,3.0,73,0.00,,---,0.00,40.00,VWS V14.00,2013-11-10 20:39:00,
2013-11-10 14:44:00,38.2,30.3,30.25,SSE,167,0.0,3.0,73,0.00,,---,0.00,33.00,VWS V14.00,2013-11-10 20:44:00,
2013-11-10 14:49:00,38.2,30.3,30.25,SSE,167,0.0,3.0,73,0.00,,---,0.00,30.00,VWS V14.00,2013-11-10 20:49:00,
2013-11-10 14:54:00,38.2,30.3,30.25,SSE,157,0.0,3.0,73,0.00,,---,0.00,26.00,VWS V14.00,2013-11-10 20:54:00,
2013-11-10 14:59:00,38.1,30.6,30.24,SSE,157,0.0,0.0,74,0.00,,---,0.00,25.00,VWS V14.00,2013-11-10 20:59:00,
2013-11-10 15:00:00,38.2,30.3,30.25,SSE,157,0.0,3.0,73,0.00,,---,0.00,25.00,VWS V14.00,2013-11-10 21:00:00,
2013-11-10 15:04:00,38.1,30.9,30.24,SSE,157,0.0,0.0,75,0.00,,---,0.00,23.00,VWS V14.00,2013-11-10 21:04:00,
2013-11-10 15:09:00,38.1,30.6,30.24,SSE,157,0.0,0.0,74,0.00,,---,0.00,23.00,VWS V14.00,2013-11-10 21:09:00,
2013-11-10 15:14:00,38.1,30.6,30.24,SSE,157,0.0,0.0,74,0.00,,---,0.00,26.00,VWS V14.00,2013-11-10 21:14:00,
2013-11-10 15:19:00,38.1,30.9,30.24,SSE,157,0.0,2.0,75,0.00,,---,0.00,26.00,VWS V14.00,2013-11-10 21:19:00,
2013-11-10 15:25:00,38.1,30.6,30.24,SSE,158,0.0,2.0,74,0.00,,---,0.00,28.00,VWS V14.00,2013-11-10 21:25:00,
2013-11-10 15:30:00,38.1,30.9,30.23,SSE,158,0.0,0.0,75,0.00,,---,0.00,26.00,VWS V14.00,2013-11-10 21:30:00,
2013-11-10 15:35:00,38.1,30.6,30.23,SSE,165,0.0,3.0,74,0.00,,---,0.00,23.00,VWS V14.00,2013-11-10 21:35:00,
2013-11-10 15:40:00,38.1,30.6,30.23,SSE,165,0.0,3.0,74,0.00,,---,0.00,18.00,VWS V14.00,2013-11-10 21:40:00,
2013-11-10 15:45:00,38.1,30.6,30.22,SSE,165,0.0,3.0,74,0.00,,---,0.00,16.00,VWS V14.00,2013-11-10 21:45:00,
2013-11-10 15:50:00,38.2,31.0,30.22,SSE,165,0.0,3.0,75,0.00,,---,0.00,14.00,VWS V14.00,2013-11-10 21:50:00,
2013-11-10 15:55:00,38.1,30.6,30.22,SSE,165,0.0,3.0,74,0.00,,---,0.00,12.00,VWS V14.00,2013-11-10 21:55:00,
2013-11-10 16:00:00,38.1,30.9,30.21,SE,145,0.0,1.0,75,0.00,,---,0.00,11.00,VWS V14.00,2013-11-10 22:00:00,
2013-11-10 16:05:00,38.1,30.9,30.21,SE,145,0.0,1.0,75,0.00,,---,0.00,12.00,VWS V14.00,2013-11-10 22:05:00,
2013-11-10 16:10:00,38.1,31.2,30.21,SE,145,0.0,1.0,76,0.00,,---,0.00,11.00,VWS V14.00,2013-11-10 22:10:00,
2013-11-10 16:15:00,38.0,30.5,30.22,ESE,115,0.0,3.0,74,0.00,,---,0.00,7.00,VWS V14.00,2013-11-10 22:15:00,
2013-11-10 16:20:00,38.0,30.8,30.22,ESE,116,0.0,3.0,75,0.00,,---,0.00,7.00,VWS V14.00,2013-11-10 22:20:00,
2013-11-10 16:25:00,38.1,30.9,30.21,ESE,116,0.0,3.0,75,0.00,,---,0.00,5.00,VWS V14.00,2013-11-10 22:25:00,
2013-11-10 16:30:00,38.0,30.8,30.21,ESE,116,0.0,3.0,75,0.00,,---,0.00,5.00,VWS V14.00,2013-11-10 22:30:00,
2013-11-10 16:31:00,38.0,30.8,30.21,ESE,116,0.0,0.0,75,0.00,,---,0.00,5.00,VWS V14.00,2013-11-10 22:31:00,
2013-11-10 16:36:00,38.0,31.1,30.20,ESE,116,0.0,0.0,76,0.00,,---,0.00,0.00,VWS V14.00,2013-11-10 22:36:00,
2013-11-10 16:41:00,37.9,31.0,30.20,ESE,116,0.0,0.0,76,0.00,,---,0.00,0.00,VWS V14.00,2013-11-10 22:41:00,
2013-11-10 16:46:00,37.9,31.0,30.20,ESE,116,0.0,0.0,76,0.00,,---,0.00,0.00,VWS V14.00,2013-11-10 22:46:00,
2013-11-10 16:51:00,37.8,30.9,30.20,ESE,116,0.0,0.0,76,0.00,,---,0.00,0.00,VWS V14.00,2013-11-10 22:51:00,
2013-11-10 16:56:00,37.8,30.9,30.20,ESE,116,0.0,0.0,76,0.00,,---,0.00,0.00,VWS V14.00,2013-11-10 22:56:00,
2013-11-10 17:00:00,37.7,30.8,30.20,ESE,116,0.0,0.0,76,0.00,,---,0.00,0.00,VWS V14.00,2013-11-10 23:00:00,
2013-11-10 17:01:00,37.7,31.1,30.19,ESE,116,0.0,0.0,77,0.00,,---,0.00,0.00,VWS V14.00,2013-11-10 23:01:00,
2013-11-10 17:06:00,37.7,31.1,30.19,ESE,116,0.0,1.0,77,0.00,,---,0.00,0.00,VWS V14.00,2013-11-10 23:06:00,
2013-11-10 17:11:00,37.6,31.1,30.18,ESE,117,0.0,1.0,77,0.00,,---,0.00,0.00,VWS V14.00,2013-11-10 23:11:00,
2013-11-10 17:16:00,37.5,31.3,30.18,ESE,116,0.0,1.0,78,0.00,,---,0.00,0.00,VWS V14.00,2013-11-10 23:16:00,
2013-11-10 17:21:00,37.5,31.3,30.18,ESE,117,0.0,1.0,78,0.00,,---,0.00,0.00,VWS V14.00,2013-11-10 23:21:00,
2013-11-10 17:26:00,37.4,31.2,30.18,ESE,117,0.0,1.0,78,0.00,,---,0.00,0.00,VWS V14.00,2013-11-10 23:26:00,
2013-11-10 17:30:00,37.4,31.2,30.18,ESE,117,0.0,1.0,78,0.00,,---,0.00,0.00,VWS V14.00,2013-11-10 23:30:00,
2013-11-10 17:31:00,37.4,31.2,30.18,ESE,119,0.0,2.0,78,0.00,,---,0.00,0.00,VWS V14.00,2013-11-10 23:31:00,
2013-11-10 17:36:00,37.3,31.4,30.17,SSW,211,2.0,3.0,79,0.00,,---,0.00,0.00,VWS V14.00,2013-11-10 23:36:00,
2013-11-10 17:42:00,37.4,30.9,30.17,SSW,211,0.0,3.0,77,0.00,,---,0.00,0.00,VWS V14.00,2013-11-10 23:42:00,
2013-11-10 17:47:00,37.4,31.2,30.17,SSW,211,0.0,3.0,78,0.00,,---,0.00,0.00,VWS V14.00,2013-11-10 23:47:00,
2013-11-10 17:52:00,37.4,31.2,30.17,SSW,210,0.0,3.0,78,0.00,,---,0.00,0.00,VWS V14.00,2013-11-10 23:52:00,
2013-11-10 17:57:00,37.3,31.1,30.17,South,184,0.0,3.0,78,0.00,,---,0.00,0.00,VWS V14.00,2013-11-10 23:57:00,
2013-11-10 18:00:00,37.3,31.1,30.17,South,184,0.0,3.0,78,0.00,,---,0.00,0.00,VWS V14.00,2013-11-11 00:00:00,
2013-11-10 18:02:00,37.4,31.2,30.17,South,184,0.0,1.0,78,0.00,,---,0.00,0.00,VWS V14.00,2013-11-11 00:02:00,
2013-11-10 18:07:00,37.4,31.5,30.17,ESE,119,0.0,2.0,79,0.00,,---,0.00,0.00,VWS V14.00,2013-11-11 00:07:00,
2013-11-10 18:12:00,37.4,31.5,30.17,ESE,115,0.0,2.0,79,0.00,,---,0.00,0.00,VWS V14.00,2013-11-11 00:12:00,
2013-11-10 18:17:00,37.3,31.1,30.17,ESE,115,0.0,2.0,78,0.00,,---,0.00,0.00,VWS V14.00,2013-11-11 00:17:00,
2013-11-10 18:22:00,37.3,31.1,30.18,ESE,115,0.0,2.0,78,0.00,,---,0.00,0.00,VWS V14.00,2013-11-11 00:22:00,
2013-11-10 18:27:00,37.2,31.0,30.18,SSE,166,0.0,0.0,78,0.00,,---,0.00,0.00,VWS V14.00,2013-11-11 00:27:00,
2013-11-10 18:30:00,37.0,31.1,30.17,SSE,161,0.0,4.0,79,0.00,,---,0.00,0.00,VWS V14.00,2013-11-11 00:30:00,
2013-11-10 18:32:00,37.2,30.7,30.18,SSE,167,0.0,0.0,77,0.00,,---,0.00,0.00,VWS V14.00,2013-11-11 00:32:00,
2013-11-10 18:37:00,37.3,31.4,30.17,SSE,167,1.0,1.0,79,0.00,,---,0.00,0.00,VWS V14.00,2013-11-11 00:37:00,
2013-11-10 18:42:00,37.2,31.0,30.19,SSE,167,0.0,1.0,78,0.00,,---,0.00,0.00,VWS V14.00,2013-11-11 00:42:00,
2013-11-10 18:48:00,37.2,31.0,30.18,SSE,167,0.0,1.0,78,0.00,,---,0.00,0.00,VWS V14.00,2013-11-11 00:48:00,
2013-11-10 18:53:00,37.1,31.2,30.17,SSE,168,0.0,1.0,79,0.00,,---,0.00,0.00,VWS V14.00,2013-11-11 00:53:00,
2013-11-10 18:58:00,37.1,30.9,30.17,SSE,168,0.0,0.0,78,0.00,,---,0.00,0.00,VWS V14.00,2013-11-11 00:58:00,
2013-11-10 19:00:00,37.1,30.9,30.17,South,169,0.0,1.0,78,0.00,,---,0.00,0.00,VWS V14.00,2013-11-11 01:00:00,
2013-11-10 19:03:00,37.1,30.9,30.18,SSW,207,0.0,4.0,78,0.00,,---,0.00,0.00,VWS V14.00,2013-11-11 01:03:00,
2013-11-10 19:08:00,37.1,31.2,30.17,South,170,0.0,4.0,79,0.00,,---,0.00,0.00,VWS V14.00,2013-11-11 01:08:00,
2013-11-10 19:13:00,37.1,30.9,30.16,South,170,0.0,4.0,78,0.00,,---,0.00,0.00,VWS V14.00,2013-11-11 01:13:00,
2013-11-10 19:18:00,37.1,30.9,30.16,SSE,160,0.0,4.0,78,0.00,,---,0.00,0.00,VWS V14.00,2013-11-11 01:18:00,
2013-11-10 19:23:00,37.1,31.2,30.17,SSE,161,0.0,4.0,79,0.00,,---,0.00,0.00,VWS V14.00,2013-11-11 01:23:00,
2013-11-10 19:28:00,37.0,31.1,30.17,South,174,0.0,1.0,79,0.00,,---,0.00,0.00,VWS V14.00,2013-11-11 01:28:00,
2013-11-10 19:30:00,37.0,31.1,30.17,SSE,161,0.0,4.0,79,0.00,,---,0.00,0.00,VWS V14.00,2013-11-11 01:30:00,
2013-11-10 19:33:00,37.0,31.1,30.17,SSE,158,0.0,2.0,79,0.00,,---,0.00,0.00,VWS V14.00,2013-11-11 01:33:00,
2013-11-10 19:38:00,36.9,31.3,30.17,SSE,157,0.0,2.0,80,0.00,,---,0.00,0.00,VWS V14.00,2013-11-11 01:38:00,
2013-11-10 19:43:00,36.9,31.3,30.17,SSE,157,0.0,2.0,80,0.00,,---,0.00,0.00,VWS V14.00,2013-11-11 01:43:00,
2013-11-10 19:48:00,36.9,31.6,30.16,SSE,157,0.0,2.0,81,0.00,,---,0.00,0.00,VWS V14.00,2013-11-11 01:48:00,
2013-11-10 19:54:00,36.8,31.2,30.16,SSE,157,0.0,2.0,80,0.00,,---,0.00,0.00,VWS V14.00,2013-11-11 01:54:00,
2013-11-10 19:59:00,36.8,31.5,30.16,SSE,157,0.0,0.0,81,0.00,,---,0.00,0.00,VWS V14.00,2013-11-11 01:59:00,
2013-11-10 20:00:00,36.8,31.2,30.16,SSE,157,0.0,2.0,80,0.00,,---,0.00,0.00,VWS V14.00,2013-11-11 02:00:00,
2013-11-10 20:04:00,36.8,31.5,30.15,SSE,157,0.0,0.0,81,0.00,,---,0.00,0.00,VWS V14.00,2013-11-11 02:04:00,
2013-11-10 20:09:00,36.8,31.5,30.16,SSE,167,0.0,1.0,81,0.00,,---,0.00,0.00,VWS V14.00,2013-11-11 02:09:00,
2013-11-10 20:14:00,36.7,31.4,30.15,SSE,167,0.0,1.0,81,0.00,,---,0.00,0.00,VWS V14.00,2013-11-11 02:14:00,
2013-11-10 20:19:00,36.7,31.7,30.15,SSE,167,0.0,1.0,82,0.00,,---,0.00,0.00,VWS V14.00,2013-11-11 02:19:00,
2013-11-10 20:24:00,36.7,31.4,30.15,SSE,167,1.0,1.0,81,0.00,,---,0.00,0.00,VWS V14.00,2013-11-11 02:24:00,
2013-11-10 20:29:00,36.7,31.4,30.14,SSE,167,0.0,0.0,81,0.00,,---,0.00,0.00,VWS V14.00,2013-11-11 02:29:00,
2013-11-10 20:30:00,36.7,31.4,30.15,SSE,167,0.0,1.0,81,0.00,,---,0.00,0.00,VWS V14.00,2013-11-11 02:30:00,
2013-11-10 20:34:00,36.7,31.7,30.15,SSE,167,0.0,0.0,82,0.00,,---,0.00,0.00,VWS V14.00,2013-11-11 02:34:00,
2013-11-10 20:39:00,36.6,31.3,30.15,SSE,167,0.0,0.0,81,0.00,,---,0.00,0.00,VWS V14.00,2013-11-11 02:39:00,
2013-11-10 20:44:00,36.6,31.6,30.15,SSE,167,0.0,0.0,82,0.00,,---,0.00,0.00,VWS V14.00,2013-11-11 02:44:00,
2013-11-10 20:49:00,36.5,31.5,30.15,SSE,167,0.0,1.0,82,0.00,,---,0.00,0.00,VWS V14.00,2013-11-11 02:49:00,
2013-11-10 20:54:00,36.5,31.5,30.15,SSE,167,0.0,1.0,82,0.00,,---,0.00,0.00,VWS V14.00,2013-11-11 02:54:00,
2013-11-10 21:00:00,36.5,31.8,30.14,SSE,167,0.0,0.0,83,0.00,,---,0.00,0.00,VWS V14.00,2013-11-11 03:00:00,
2013-11-10 21:05:00,36.5,31.8,30.13,SSE,167,0.0,0.0,83,0.00,,---,0.00,0.00,VWS V14.00,2013-11-11 03:05:00,
2013-11-10 21:10:00,36.4,31.7,30.14,SSE,167,0.0,0.0,83,0.00,,---,0.00,0.00,VWS V14.00,2013-11-11 03:10:00,
2013-11-10 21:15:00,36.4,31.7,30.14,SSE,167,0.0,0.0,83,0.00,,---,0.00,0.00,VWS V14.00,2013-11-11 03:15:00,
2013-11-10 21:20:00,36.3,31.6,30.15,SSE,167,0.0,1.0,83,0.00,,---,0.00,0.00,VWS V14.00,2013-11-11 03:20:00,
2013-11-10 21:25:00,36.3,31.3,30.15,SSE,167,0.0,1.0,82,0.00,,---,0.00,0.00,VWS V14.00,2013-11-11 03:25:00,
2013-11-10 21:30:00,36.2,31.5,30.14,SSE,167,0.0,0.0,83,0.00,,---,0.00,0.00,VWS V14.00,2013-11-11 03:30:00,
2013-11-10 21:35:00,36.3,31.6,30.12,SSE,167,0.0,0.0,83,0.00,,---,0.00,0.00,VWS V14.00,2013-11-11 03:35:00,
2013-11-10 21:40:00,36.3,31.9,30.10,SSE,167,0.0,0.0,84,0.00,,---,0.00,0.00,VWS V14.00,2013-11-11 03:40:00,
2013-11-10 21:45:00,36.3,31.6,30.11,SSE,167,0.0,0.0,83,0.00,,---,0.00,0.00,VWS V14.00,2013-11-11 03:45:00,
2013-11-10 21:50:00,36.2,31.5,30.13,SSE,167,0.0,0.0,83,0.00,,---,0.00,0.00,VWS V14.00,2013-11-11 03:50:00,
2013-11-10 21:55:00,36.2,31.5,30.13,SSE,167,0.0,0.0,83,0.00,,---,0.00,0.00,VWS V14.00,2013-11-11 03:55:00,
2013-11-10 22:00:00,36.1,31.5,30.13,SSE,167,0.0,0.0,83,0.00,,---,0.00,0.00,VWS V14.00,2013-11-11 04:00:00,
2013-11-10 22:06:00,36.1,31.7,30.14,SSE,167,0.0,0.0,84,0.00,,---,0.00,0.00,VWS V14.00,2013-11-11 04:06:00,
2013-11-10 22:11:00,36.0,31.6,30.13,SSE,167,0.0,0.0,84,0.00,,---,0.00,0.00,VWS V14.00,2013-11-11 04:11:00,
2013-11-10 22:16:00,36.0,31.6,30.12,SSE,167,0.0,0.0,84,0.00,,---,0.00,0.00,VWS V14.00,2013-11-11 04:16:00,
2013-11-10 22:21:00,36.0,31.4,30.13,SSE,167,0.0,0.0,83,0.00,,---,0.00,0.00,VWS V14.00,2013-11-11 04:21:00,
2013-11-10 22:26:00,36.0,31.4,30.14,SSE,167,0.0,0.0,83,0.00,,---,0.00,0.00,VWS V14.00,2013-11-11 04:26:00,
2013-11-10 22:30:00,35.9,31.2,30.14,SSE,167,0.0,0.0,83,0.00,,---,0.00,0.00,VWS V14.00,2013-11-11 04:30:00,
2013-11-10 22:31:00,35.9,31.2,30.13,SSE,167,0.0,0.0,83,0.00,,---,0.00,0.00,VWS V14.00,2013-11-11 04:31:00,
2013-11-10 22:36:00,35.9,31.2,30.13,SSE,167,0.0,0.0,83,0.00,,---,0.00,0.00,VWS V14.00,2013-11-11 04:36:00,
2013-11-10 22:41:00,36.1,31.5,30.14,SSE,167,0.0,1.0,83,0.00,,---,0.00,0.00,VWS V14.00,2013-11-11 04:41:00,
2013-11-10 22:46:00,36.1,31.7,30.12,SSE,167,0.0,1.0,84,0.00,,---,0.00,0.00,VWS V14.00,2013-11-11 04:46:00,
2013-11-10 22:51:00,36.2,31.5,30.13,SSE,167,0.0,1.0,83,0.00,,---,0.00,0.00,VWS V14.00,2013-11-11 04:51:00,
2013-11-10 22:56:00,36.2,31.5,30.12,SSE,167,0.0,1.0,83,0.00,,---,0.00,0.00,VWS V14.00,2013-11-11 04:56:00,
2013-11-10 23:00:00,37.0,32.0,30.14,NW,312,0.0,7.0,82,0.00,,---,0.00,0.00,VWS V14.00,2013-11-11 05:00:00,
2013-11-10 23:01:00,36.2,31.5,30.12,SSE,167,0.0,0.0,83,0.00,,---,0.00,0.00,VWS V14.00,2013-11-11 05:01:00,
2013-11-10 23:03:00,36.2,31.5,30.12,SSE,167,0.0,0.0,83,0.00,,---,0.00,0.00,VWS V14.00,2013-11-11 05:03:00,
2013-11-10 23:05:00,36.2,31.8,30.12,SSE,167,0.0,0.0,84,0.00,,---,0.00,0.00,VWS V14.00,2013-11-11 05:05:00,
2013-11-10 23:10:00,36.2,32.1,30.13,SSE,167,0.0,1.0,85,0.00,,---,0.00,0.00,VWS V14.00,2013-11-11 05:10:00,
2013-11-10 23:15:00,36.1,31.7,30.12,SSE,167,0.0,1.0,84,0.00,,---,0.00,0.00,VWS V14.00,2013-11-11 05:15:00,
2013-11-10 23:20:00,36.1,31.7,30.12,SSE,167,0.0,1.0,84,0.00,,---,0.00,0.00,VWS V14.00,2013-11-11 05:20:00,
2013-11-10 23:25:00,36.1,31.7,30.14,SSE,167,0.0,1.0,84,0.00,,---,0.00,0.00,VWS V14.00,2013-11-11 05:25:00,
2013-11-10 23:30:00,36.2,31.8,30.14,NW,304,0.0,2.0,84,0.00,,---,0.00,0.00,VWS V14.00,2013-11-11 05:30:00,
2013-11-10 23:35:00,36.3,31.9,30.13,NW,311,1.0,2.0,84,0.00,,---,0.00,0.00,VWS V14.00,2013-11-11 05:35:00,
2013-11-10 23:41:00,36.4,31.7,30.12,NW,311,0.0,3.0,83,0.00,,---,0.00,0.00,VWS V14.00,2013-11-11 05:41:00,
2013-11-10 23:46:00,36.6,31.9,30.13,NW,314,0.0,5.0,83,0.00,,---,0.00,0.00,VWS V14.00,2013-11-11 05:46:00,
2013-11-10 23:51:00,36.8,32.1,30.13,NW,324,1.0,5.0,83,0.00,,---,0.00,0.00,VWS V14.00,2013-11-11 05:51:00,
2013-11-10 23:56:00,37.0,32.0,30.14,NW,313,3.0,7.0,82,0.00,,---,0.00,0.00,VWS V14.00,2013-11-11 05:56:00,